sensor_id;sensor_type;location;lat;lon;timestamp;P1;durP1;ratioP1;P2;durP2;ratioP2
82920;SDS011;72696;52.372;9.722;2023-11-21T00:05:54;12.20;;;5.00;;
82920;SDS011;72696;52.372;9.722;2023-11-21T00:08:19;14.32;;;4.93;;
82920;SDS011;72696;52.372;9.722;2023-11-21T00:10:45;13.73;;;5.13;;
82920;SDS011;72696;52.372;9.722;2023-11-21T00:13:10;13.35;;;5.90;;
82920;SDS011;72696;52.372;9.722;2023-11-21T00:15:37;10.27;;;5.32;;
82920;SDS011;72696;52.372;9.722;2023-11-21T00:18:02;16.25;;;5.88;;
82920;SDS011;72696;52.372;9.722;2023-11-21T00:20:28;12.45;;;6.40;;
82920;SDS011;72696;52.372;9.722;2023-11-21T00:22:53;15.95;;;6.43;;
82920;SDS011;72696;52.372;9.722;2023-11-21T00:25:31;14.35;;;5.43;;
82920;SDS011;72696;52.372;9.722;2023-11-21T00:27:56;10.05;;;5.13;;
82920;SDS011;72696;52.372;9.722;2023-11-21T00:30:21;15.38;;;6.03;;
82920;SDS011;72696;52.372;9.722;2023-11-21T00:32:47;17.23;;;5.72;;
82920;SDS011;72696;52.372;9.722;2023-11-21T00:35:12;15.13;;;6.18;;
82920;SDS011;72696;52.372;9.722;2023-11-21T00:37:38;14.85;;;6.10;;
82920;SDS011;72696;52.372;9.722;2023-11-21T00:40:04;12.02;;;5.78;;
82920;SDS011;72696;52.372;9.722;2023-11-21T00:42:30;14.40;;;6.65;;
82920;SDS011;72696;52.372;9.722;2023-11-21T00:44:58;17.20;;;5.75;;
82920;SDS011;72696;52.372;9.722;2023-11-21T00:47:23;13.32;;;5.75;;
82920;SDS011;72696;52.372;9.722;2023-11-21T00:49:48;13.40;;;6.25;;
82920;SDS011;72696;52.372;9.722;2023-11-21T00:52:14;14.00;;;6.38;;
82920;SDS011;72696;52.372;9.722;2023-11-21T00:54:39;17.35;;;6.65;;
82920;SDS011;72696;52.372;9.722;2023-11-21T00:57:05;12.73;;;5.95;;
82920;SDS011;72696;52.372;9.722;2023-11-21T00:59:30;16.23;;;6.47;;
82920;SDS011;72696;52.372;9.722;2023-11-21T01:01:56;13.20;;;7.00;;
82920;SDS011;72696;52.372;9.722;2023-11-21T01:04:21;15.05;;;6.45;;
82920;SDS011;72696;52.372;9.722;2023-11-21T01:06:46;14.95;;;6.80;;
82920;SDS011;72696;52.372;9.722;2023-11-21T01:09:12;15.55;;;7.22;;
82920;SDS011;72696;52.372;9.722;2023-11-21T01:11:37;15.27;;;7.20;;
82920;SDS011;72696;52.372;9.722;2023-11-21T01:14:04;14.27;;;6.88;;
82920;SDS011;72696;52.372;9.722;2023-11-21T01:16:29;17.90;;;8.02;;
82920;SDS011;72696;52.372;9.722;2023-11-21T01:18:57;14.48;;;7.20;;
82920;SDS011;72696;52.372;9.722;2023-11-21T01:21:23;17.55;;;7.60;;
82920;SDS011;72696;52.372;9.722;2023-11-21T01:23:49;16.55;;;7.63;;
82920;SDS011;72696;52.372;9.722;2023-11-21T01:26:14;17.80;;;8.48;;
82920;SDS011;72696;52.372;9.722;2023-11-21T01:28:40;21.13;;;8.18;;
82920;SDS011;72696;52.372;9.722;2023-11-21T01:31:05;13.63;;;7.60;;
82920;SDS011;72696;52.372;9.722;2023-11-21T01:33:32;18.85;;;7.93;;
82920;SDS011;72696;52.372;9.722;2023-11-21T01:35:58;17.20;;;8.40;;
82920;SDS011;72696;52.372;9.722;2023-11-21T01:38:24;16.90;;;7.53;;
82920;SDS011;72696;52.372;9.722;2023-11-21T01:40:50;16.17;;;7.07;;
82920;SDS011;72696;52.372;9.722;2023-11-21T01:43:15;16.73;;;8.35;;
82920;SDS011;72696;52.372;9.722;2023-11-21T01:45:41;19.80;;;7.78;;
82920;SDS011;72696;52.372;9.722;2023-11-21T01:48:07;21.65;;;8.13;;
82920;SDS011;72696;52.372;9.722;2023-11-21T01:50:33;20.30;;;7.97;;
82920;SDS011;72696;52.372;9.722;2023-11-21T01:53:01;15.80;;;7.82;;
82920;SDS011;72696;52.372;9.722;2023-11-21T01:55:26;17.58;;;8.38;;
82920;SDS011;72696;52.372;9.722;2023-11-21T01:57:52;18.58;;;8.02;;
82920;SDS011;72696;52.372;9.722;2023-11-21T02:00:18;16.73;;;7.97;;
82920;SDS011;72696;52.372;9.722;2023-11-21T02:02:47;19.15;;;8.20;;
82920;SDS011;72696;52.372;9.722;2023-11-21T02:05:17;20.05;;;8.35;;
82920;SDS011;72696;52.372;9.722;2023-11-21T02:07:47;17.65;;;7.60;;
82920;SDS011;72696;52.372;9.722;2023-11-21T02:10:17;17.88;;;8.15;;
82920;SDS011;72696;52.372;9.722;2023-11-21T02:12:47;19.02;;;8.40;;
82920;SDS011;72696;52.372;9.722;2023-11-21T02:15:13;18.15;;;8.18;;
82920;SDS011;72696;52.372;9.722;2023-11-21T02:17:45;19.10;;;8.70;;
82920;SDS011;72696;52.372;9.722;2023-11-21T02:20:16;18.15;;;7.53;;
82920;SDS011;72696;52.372;9.722;2023-11-21T02:22:43;20.50;;;9.75;;
82920;SDS011;72696;52.372;9.722;2023-11-21T02:25:09;21.58;;;9.52;;
82920;SDS011;72696;52.372;9.722;2023-11-21T02:27:34;19.63;;;8.50;;
82920;SDS011;72696;52.372;9.722;2023-11-21T02:29:59;19.48;;;8.15;;
82920;SDS011;72696;52.372;9.722;2023-11-21T02:32:26;16.65;;;8.32;;
82920;SDS011;72696;52.372;9.722;2023-11-21T02:34:51;17.45;;;7.55;;
82920;SDS011;72696;52.372;9.722;2023-11-21T02:37:17;18.38;;;8.02;;
82920;SDS011;72696;52.372;9.722;2023-11-21T02:39:42;19.08;;;8.85;;
82920;SDS011;72696;52.372;9.722;2023-11-21T02:42:08;17.02;;;8.48;;
82920;SDS011;72696;52.372;9.722;2023-11-21T02:44:33;19.83;;;8.30;;
82920;SDS011;72696;52.372;9.722;2023-11-21T02:46:59;22.42;;;9.75;;
82920;SDS011;72696;52.372;9.722;2023-11-21T02:49:25;28.48;;;10.50;;
82920;SDS011;72696;52.372;9.722;2023-11-21T02:51:53;23.05;;;10.10;;
82920;SDS011;72696;52.372;9.722;2023-11-21T02:54:20;23.02;;;10.02;;
82920;SDS011;72696;52.372;9.722;2023-11-21T02:56:46;20.60;;;8.80;;
82920;SDS011;72696;52.372;9.722;2023-11-21T02:59:12;22.00;;;9.95;;
82920;SDS011;72696;52.372;9.722;2023-11-21T03:01:37;17.45;;;8.70;;
82920;SDS011;72696;52.372;9.722;2023-11-21T03:04:03;17.70;;;9.65;;
82920;SDS011;72696;52.372;9.722;2023-11-21T03:06:28;20.17;;;9.60;;
82920;SDS011;72696;52.372;9.722;2023-11-21T03:08:54;22.38;;;10.32;;
82920;SDS011;72696;52.372;9.722;2023-11-21T03:11:19;19.50;;;8.77;;
82920;SDS011;72696;52.372;9.722;2023-11-21T03:13:45;20.63;;;9.35;;
82920;SDS011;72696;52.372;9.722;2023-11-21T03:16:10;20.45;;;8.85;;
82920;SDS011;72696;52.372;9.722;2023-11-21T03:18:37;23.48;;;9.30;;
82920;SDS011;72696;52.372;9.722;2023-11-21T03:21:06;21.35;;;9.23;;
82920;SDS011;72696;52.372;9.722;2023-11-21T03:23:34;22.65;;;10.32;;
82920;SDS011;72696;52.372;9.722;2023-11-21T03:25:59;22.65;;;10.27;;
82920;SDS011;72696;52.372;9.722;2023-11-21T03:28:25;21.35;;;10.00;;
82920;SDS011;72696;52.372;9.722;2023-11-21T03:30:52;24.88;;;9.55;;
82920;SDS011;72696;52.372;9.722;2023-11-21T03:33:18;22.35;;;10.02;;
82920;SDS011;72696;52.372;9.722;2023-11-21T03:35:43;21.05;;;9.38;;
82920;SDS011;72696;52.372;9.722;2023-11-21T03:38:10;22.65;;;11.05;;
82920;SDS011;72696;52.372;9.722;2023-11-21T03:40:35;24.38;;;10.18;;
82920;SDS011;72696;52.372;9.722;2023-11-21T03:43:01;22.75;;;10.43;;
82920;SDS011;72696;52.372;9.722;2023-11-21T03:45:26;21.23;;;10.73;;
82920;SDS011;72696;52.372;9.722;2023-11-21T03:47:51;26.05;;;10.65;;
82920;SDS011;72696;52.372;9.722;2023-11-21T03:50:17;23.00;;;10.18;;
82920;SDS011;72696;52.372;9.722;2023-11-21T03:52:42;21.42;;;11.30;;
82920;SDS011;72696;52.372;9.722;2023-11-21T03:55:08;29.45;;;11.75;;
82920;SDS011;72696;52.372;9.722;2023-11-21T03:57:33;23.35;;;10.45;;
82920;SDS011;72696;52.372;9.722;2023-11-21T03:59:59;26.35;;;10.45;;
82920;SDS011;72696;52.372;9.722;2023-11-21T04:02:24;30.65;;;11.40;;
82920;SDS011;72696;52.372;9.722;2023-11-21T04:04:51;31.02;;;11.15;;
82920;SDS011;72696;52.372;9.722;2023-11-21T04:07:16;31.80;;;12.52;;
82920;SDS011;72696;52.372;9.722;2023-11-21T04:09:42;28.50;;;11.75;;
82920;SDS011;72696;52.372;9.722;2023-11-21T04:12:08;36.03;;;11.57;;
82920;SDS011;72696;52.372;9.722;2023-11-21T04:14:36;27.13;;;11.88;;
82920;SDS011;72696;52.372;9.722;2023-11-21T04:17:01;31.95;;;12.27;;
82920;SDS011;72696;52.372;9.722;2023-11-21T04:19:29;27.05;;;12.40;;
82920;SDS011;72696;52.372;9.722;2023-11-21T04:21:54;31.02;;;12.07;;
82920;SDS011;72696;52.372;9.722;2023-11-21T04:24:19;33.55;;;12.77;;
82920;SDS011;72696;52.372;9.722;2023-11-21T04:26:45;32.00;;;12.45;;
82920;SDS011;72696;52.372;9.722;2023-11-21T04:29:10;35.70;;;13.98;;
82920;SDS011;72696;52.372;9.722;2023-11-21T04:31:36;30.58;;;12.60;;
82920;SDS011;72696;52.372;9.722;2023-11-21T04:34:02;24.42;;;11.10;;
82920;SDS011;72696;52.372;9.722;2023-11-21T04:36:29;31.38;;;12.93;;
82920;SDS011;72696;52.372;9.722;2023-11-21T04:38:55;30.80;;;12.07;;
82920;SDS011;72696;52.372;9.722;2023-11-21T04:41:21;29.83;;;12.05;;
82920;SDS011;72696;52.372;9.722;2023-11-21T04:43:46;29.88;;;12.15;;
82920;SDS011;72696;52.372;9.722;2023-11-21T04:46:11;30.35;;;13.00;;
82920;SDS011;72696;52.372;9.722;2023-11-21T04:48:37;31.27;;;12.50;;
82920;SDS011;72696;52.372;9.722;2023-11-21T04:51:02;28.35;;;11.38;;
82920;SDS011;72696;52.372;9.722;2023-11-21T04:53:29;25.67;;;10.73;;
82920;SDS011;72696;52.372;9.722;2023-11-21T04:55:54;30.73;;;12.13;;
82920;SDS011;72696;52.372;9.722;2023-11-21T04:58:20;28.85;;;11.50;;
82920;SDS011;72696;52.372;9.722;2023-11-21T05:00:45;28.65;;;12.30;;
82920;SDS011;72696;52.372;9.722;2023-11-21T05:03:11;28.30;;;11.50;;
82920;SDS011;72696;52.372;9.722;2023-11-21T05:05:37;27.15;;;11.52;;
82920;SDS011;72696;52.372;9.722;2023-11-21T05:08:02;22.10;;;11.55;;
82920;SDS011;72696;52.372;9.722;2023-11-21T05:10:28;23.42;;;9.98;;
82920;SDS011;72696;52.372;9.722;2023-11-21T05:12:54;26.48;;;11.35;;
82920;SDS011;72696;52.372;9.722;2023-11-21T05:15:20;24.00;;;10.00;;
82920;SDS011;72696;52.372;9.722;2023-11-21T05:17:46;21.70;;;9.98;;
82920;SDS011;72696;52.372;9.722;2023-11-21T05:20:18;23.77;;;9.65;;
82920;SDS011;72696;52.372;9.722;2023-11-21T05:22:49;20.00;;;9.43;;
82920;SDS011;72696;52.372;9.722;2023-11-21T05:25:14;23.13;;;9.40;;
82920;SDS011;72696;52.372;9.722;2023-11-21T05:27:40;19.42;;;10.00;;
82920;SDS011;72696;52.372;9.722;2023-11-21T05:30:06;20.83;;;9.20;;
82920;SDS011;72696;52.372;9.722;2023-11-21T05:32:32;21.85;;;9.40;;
82920;SDS011;72696;52.372;9.722;2023-11-21T05:34:58;20.20;;;9.27;;
82920;SDS011;72696;52.372;9.722;2023-11-21T05:37:24;20.63;;;9.40;;
82920;SDS011;72696;52.372;9.722;2023-11-21T05:39:51;18.67;;;9.07;;
82920;SDS011;72696;52.372;9.722;2023-11-21T05:42:17;20.38;;;8.98;;
82920;SDS011;72696;52.372;9.722;2023-11-21T05:44:43;19.52;;;10.05;;
82920;SDS011;72696;52.372;9.722;2023-11-21T05:47:08;18.48;;;8.55;;
82920;SDS011;72696;52.372;9.722;2023-11-21T05:49:34;17.52;;;8.40;;
82920;SDS011;72696;52.372;9.722;2023-11-21T05:52:00;20.17;;;8.95;;
82920;SDS011;72696;52.372;9.722;2023-11-21T05:54:25;16.13;;;7.38;;
82920;SDS011;72696;52.372;9.722;2023-11-21T05:56:51;18.98;;;7.80;;
82920;SDS011;72696;52.372;9.722;2023-11-21T05:59:16;13.88;;;7.53;;
82920;SDS011;72696;52.372;9.722;2023-11-21T06:01:42;14.90;;;6.88;;
82920;SDS011;72696;52.372;9.722;2023-11-21T06:04:07;14.88;;;7.63;;
82920;SDS011;72696;52.372;9.722;2023-11-21T06:06:35;12.98;;;6.90;;
82920;SDS011;72696;52.372;9.722;2023-11-21T06:09:01;13.02;;;6.90;;
82920;SDS011;72696;52.372;9.722;2023-11-21T06:11:27;18.55;;;8.55;;
82920;SDS011;72696;52.372;9.722;2023-11-21T06:13:52;14.07;;;6.93;;
82920;SDS011;72696;52.372;9.722;2023-11-21T06:16:20;16.73;;;7.93;;
82920;SDS011;72696;52.372;9.722;2023-11-21T06:18:46;20.98;;;8.18;;
82920;SDS011;72696;52.372;9.722;2023-11-21T06:21:11;14.88;;;7.13;;
82920;SDS011;72696;52.372;9.722;2023-11-21T06:23:37;16.50;;;7.13;;
82920;SDS011;72696;52.372;9.722;2023-11-21T06:26:02;17.08;;;7.63;;
82920;SDS011;72696;52.372;9.722;2023-11-21T06:28:29;14.77;;;7.20;;
82920;SDS011;72696;52.372;9.722;2023-11-21T06:30:55;14.77;;;7.18;;
82920;SDS011;72696;52.372;9.722;2023-11-21T06:33:21;18.00;;;7.93;;
82920;SDS011;72696;52.372;9.722;2023-11-21T06:35:46;16.25;;;7.28;;
82920;SDS011;72696;52.372;9.722;2023-11-21T06:38:12;16.50;;;7.97;;
82920;SDS011;72696;52.372;9.722;2023-11-21T06:40:37;14.90;;;7.28;;
82920;SDS011;72696;52.372;9.722;2023-11-21T06:43:03;13.30;;;7.25;;
82920;SDS011;72696;52.372;9.722;2023-11-21T06:45:29;12.55;;;7.15;;
82920;SDS011;72696;52.372;9.722;2023-11-21T06:47:55;10.45;;;5.57;;
82920;SDS011;72696;52.372;9.722;2023-11-21T06:50:20;12.98;;;5.80;;
82920;SDS011;72696;52.372;9.722;2023-11-21T06:52:46;9.25;;;4.75;;
82920;SDS011;72696;52.372;9.722;2023-11-21T06:55:11;8.43;;;4.38;;
82920;SDS011;72696;52.372;9.722;2023-11-21T06:57:36;7.97;;;4.68;;
82920;SDS011;72696;52.372;9.722;2023-11-21T07:00:03;8.77;;;5.13;;
82920;SDS011;72696;52.372;9.722;2023-11-21T07:02:29;9.70;;;5.43;;
82920;SDS011;72696;52.372;9.722;2023-11-21T07:04:54;9.55;;;5.18;;
82920;SDS011;72696;52.372;9.722;2023-11-21T07:07:20;8.07;;;4.55;;
82920;SDS011;72696;52.372;9.722;2023-11-21T07:09:45;11.27;;;6.00;;
82920;SDS011;72696;52.372;9.722;2023-11-21T07:12:11;8.60;;;4.78;;
82920;SDS011;72696;52.372;9.722;2023-11-21T07:14:36;8.63;;;5.07;;
82920;SDS011;72696;52.372;9.722;2023-11-21T07:17:04;11.50;;;5.47;;
82920;SDS011;72696;52.372;9.722;2023-11-21T07:19:29;9.02;;;4.72;;
82920;SDS011;72696;52.372;9.722;2023-11-21T07:21:55;7.45;;;4.80;;
82920;SDS011;72696;52.372;9.722;2023-11-21T07:24:21;9.80;;;4.22;;
82920;SDS011;72696;52.372;9.722;2023-11-21T07:26:47;6.78;;;4.60;;
82920;SDS011;72696;52.372;9.722;2023-11-21T07:29:13;7.00;;;3.83;;
82920;SDS011;72696;52.372;9.722;2023-11-21T07:31:38;6.63;;;4.05;;
82920;SDS011;72696;52.372;9.722;2023-11-21T07:34:03;7.63;;;4.15;;
82920;SDS011;72696;52.372;9.722;2023-11-21T07:36:29;7.80;;;4.38;;
82920;SDS011;72696;52.372;9.722;2023-11-21T07:38:54;9.10;;;3.78;;
82920;SDS011;72696;52.372;9.722;2023-11-21T07:41:20;7.43;;;4.50;;
82920;SDS011;72696;52.372;9.722;2023-11-21T07:43:46;9.20;;;4.57;;
82920;SDS011;72696;52.372;9.722;2023-11-21T07:46:11;7.07;;;3.88;;
82920;SDS011;72696;52.372;9.722;2023-11-21T07:48:40;7.50;;;4.60;;
82920;SDS011;72696;52.372;9.722;2023-11-21T07:51:11;6.95;;;4.43;;
82920;SDS011;72696;52.372;9.722;2023-11-21T07:53:37;9.70;;;4.88;;
82920;SDS011;72696;52.372;9.722;2023-11-21T07:56:04;7.47;;;4.50;;
82920;SDS011;72696;52.372;9.722;2023-11-21T07:58:31;8.90;;;4.40;;
82920;SDS011;72696;52.372;9.722;2023-11-21T08:00:58;8.75;;;5.18;;
82920;SDS011;72696;52.372;9.722;2023-11-21T08:03:24;9.90;;;5.28;;
82920;SDS011;72696;52.372;9.722;2023-11-21T08:05:51;9.45;;;5.22;;
82920;SDS011;72696;52.372;9.722;2023-11-21T08:08:17;9.00;;;5.57;;
82920;SDS011;72696;52.372;9.722;2023-11-21T08:10:43;8.77;;;5.50;;
82920;SDS011;72696;52.372;9.722;2023-11-21T08:13:21;10.52;;;6.20;;
82920;SDS011;72696;52.372;9.722;2023-11-21T08:15:49;12.07;;;5.95;;
82920;SDS011;72696;52.372;9.722;2023-11-21T08:18:15;10.38;;;5.82;;
82920;SDS011;72696;52.372;9.722;2023-11-21T08:20:42;10.10;;;6.25;;
82920;SDS011;72696;52.372;9.722;2023-11-21T08:23:08;10.60;;;6.45;;
82920;SDS011;72696;52.372;9.722;2023-11-21T08:25:33;9.15;;;5.80;;
82920;SDS011;72696;52.372;9.722;2023-11-21T08:27:59;12.77;;;6.63;;
82920;SDS011;72696;52.372;9.722;2023-11-21T08:30:26;13.15;;;6.78;;
82920;SDS011;72696;52.372;9.722;2023-11-21T08:32:54;11.70;;;6.70;;
82920;SDS011;72696;52.372;9.722;2023-11-21T08:35:23;12.90;;;7.20;;
82920;SDS011;72696;52.372;9.722;2023-11-21T08:37:51;13.50;;;7.85;;
82920;SDS011;72696;52.372;9.722;2023-11-21T08:40:20;14.32;;;7.30;;
82920;SDS011;72696;52.372;9.722;2023-11-21T08:42:46;14.27;;;7.82;;
82920;SDS011;72696;52.372;9.722;2023-11-21T08:45:11;12.32;;;6.85;;
82920;SDS011;72696;52.372;9.722;2023-11-21T08:47:38;10.80;;;7.00;;
82920;SDS011;72696;52.372;9.722;2023-11-21T08:50:04;11.18;;;6.75;;
82920;SDS011;72696;52.372;9.722;2023-11-21T08:52:33;13.50;;;7.20;;
82920;SDS011;72696;52.372;9.722;2023-11-21T08:54:59;12.68;;;6.78;;
82920;SDS011;72696;52.372;9.722;2023-11-21T08:57:27;14.25;;;7.47;;
82920;SDS011;72696;52.372;9.722;2023-11-21T08:59:53;11.90;;;6.80;;
82920;SDS011;72696;52.372;9.722;2023-11-21T09:02:21;12.13;;;7.40;;
82920;SDS011;72696;52.372;9.722;2023-11-21T09:04:48;13.43;;;6.95;;
82920;SDS011;72696;52.372;9.722;2023-11-21T09:07:13;12.27;;;7.05;;
82920;SDS011;72696;52.372;9.722;2023-11-21T09:09:39;14.18;;;7.45;;
82920;SDS011;72696;52.372;9.722;2023-11-21T09:12:04;13.07;;;7.10;;
82920;SDS011;72696;52.372;9.722;2023-11-21T09:14:30;10.73;;;5.88;;
82920;SDS011;72696;52.372;9.722;2023-11-21T09:16:55;12.15;;;7.13;;
82920;SDS011;72696;52.372;9.722;2023-11-21T09:19:21;12.88;;;7.75;;
82920;SDS011;72696;52.372;9.722;2023-11-21T09:21:46;11.68;;;6.65;;
82920;SDS011;72696;52.372;9.722;2023-11-21T09:24:12;10.32;;;5.95;;
82920;SDS011;72696;52.372;9.722;2023-11-21T09:26:37;10.93;;;7.10;;
82920;SDS011;72696;52.372;9.722;2023-11-21T09:29:03;12.10;;;6.40;;
82920;SDS011;72696;52.372;9.722;2023-11-21T09:31:28;10.80;;;6.00;;
82920;SDS011;72696;52.372;9.722;2023-11-21T09:33:54;14.23;;;6.50;;
82920;SDS011;72696;52.372;9.722;2023-11-21T09:36:19;9.50;;;5.97;;
82920;SDS011;72696;52.372;9.722;2023-11-21T09:38:47;11.43;;;6.80;;
82920;SDS011;72696;52.372;9.722;2023-11-21T09:41:23;10.95;;;6.25;;
82920;SDS011;72696;52.372;9.722;2023-11-21T09:43:55;10.02;;;6.28;;
82920;SDS011;72696;52.372;9.722;2023-11-21T09:46:24;9.68;;;6.13;;
82920;SDS011;72696;52.372;9.722;2023-11-21T09:48:53;11.98;;;7.03;;
82920;SDS011;72696;52.372;9.722;2023-11-21T09:51:21;9.23;;;5.68;;
82920;SDS011;72696;52.372;9.722;2023-11-21T09:53:49;7.65;;;5.15;;
82920;SDS011;72696;52.372;9.722;2023-11-21T09:56:17;9.95;;;5.88;;
82920;SDS011;72696;52.372;9.722;2023-11-21T09:58:50;11.35;;;5.68;;
82920;SDS011;72696;52.372;9.722;2023-11-21T10:01:16;9.85;;;6.20;;
82920;SDS011;72696;52.372;9.722;2023-11-21T10:03:42;11.55;;;5.82;;
82920;SDS011;72696;52.372;9.722;2023-11-21T10:06:08;9.63;;;5.90;;
82920;SDS011;72696;52.372;9.722;2023-11-21T10:08:34;8.65;;;5.38;;
82920;SDS011;72696;52.372;9.722;2023-11-21T10:11:01;8.57;;;5.25;;
82920;SDS011;72696;52.372;9.722;2023-11-21T10:13:27;8.32;;;6.18;;
82920;SDS011;72696;52.372;9.722;2023-11-21T10:15:55;8.35;;;5.10;;
82920;SDS011;72696;52.372;9.722;2023-11-21T10:18:20;10.10;;;6.15;;
82920;SDS011;72696;52.372;9.722;2023-11-21T10:20:48;6.95;;;4.82;;
82920;SDS011;72696;52.372;9.722;2023-11-21T10:23:18;8.05;;;4.85;;
82920;SDS011;72696;52.372;9.722;2023-11-21T10:25:44;8.05;;;5.18;;
82920;SDS011;72696;52.372;9.722;2023-11-21T10:28:09;8.38;;;4.75;;
82920;SDS011;72696;52.372;9.722;2023-11-21T10:30:36;8.25;;;4.57;;
82920;SDS011;72696;52.372;9.722;2023-11-21T10:33:06;8.93;;;5.45;;
82920;SDS011;72696;52.372;9.722;2023-11-21T10:38:18;7.10;;;4.97;;
82920;SDS011;72696;52.372;9.722;2023-11-21T10:40:46;9.20;;;5.30;;
82920;SDS011;72696;52.372;9.722;2023-11-21T10:43:11;9.02;;;5.88;;
82920;SDS011;72696;52.372;9.722;2023-11-21T10:45:38;10.25;;;5.82;;
82920;SDS011;72696;52.372;9.722;2023-11-21T10:48:07;10.73;;;5.50;;
82920;SDS011;72696;52.372;9.722;2023-11-21T10:50:36;8.13;;;5.15;;
82920;SDS011;72696;52.372;9.722;2023-11-21T10:53:02;8.35;;;5.53;;
82920;SDS011;72696;52.372;9.722;2023-11-21T10:55:29;8.60;;;5.20;;
82920;SDS011;72696;52.372;9.722;2023-11-21T10:57:54;9.00;;;4.95;;
82920;SDS011;72696;52.372;9.722;2023-11-21T11:00:23;8.57;;;4.78;;
82920;SDS011;72696;52.372;9.722;2023-11-21T11:02:51;7.45;;;4.68;;
82920;SDS011;72696;52.372;9.722;2023-11-21T11:05:21;11.05;;;4.72;;
82920;SDS011;72696;52.372;9.722;2023-11-21T11:07:51;7.25;;;4.50;;
82920;SDS011;72696;52.372;9.722;2023-11-21T11:10:37;6.35;;;4.53;;
82920;SDS011;72696;52.372;9.722;2023-11-21T11:13:03;6.18;;;4.70;;
82920;SDS011;72696;52.372;9.722;2023-11-21T11:15:29;7.50;;;4.50;;
82920;SDS011;72696;52.372;9.722;2023-11-21T11:17:54;7.65;;;4.45;;
82920;SDS011;72696;52.372;9.722;2023-11-21T11:20:29;7.38;;;4.88;;
82920;SDS011;72696;52.372;9.722;2023-11-21T11:28:12;7.50;;;5.30;;
82920;SDS011;72696;52.372;9.722;2023-11-21T11:33:55;7.35;;;4.80;;
82920;SDS011;72696;52.372;9.722;2023-11-21T11:36:27;7.75;;;4.90;;
82920;SDS011;72696;52.372;9.722;2023-11-21T11:38:54;6.78;;;4.95;;
82920;SDS011;72696;52.372;9.722;2023-11-21T11:41:25;9.13;;;5.15;;
82920;SDS011;72696;52.372;9.722;2023-11-21T11:43:55;7.40;;;5.00;;
82920;SDS011;72696;52.372;9.722;2023-11-21T11:46:21;8.52;;;4.85;;
82920;SDS011;72696;52.372;9.722;2023-11-21T11:49:06;6.82;;;5.00;;
82920;SDS011;72696;52.372;9.722;2023-11-21T11:51:33;7.00;;;4.75;;
82920;SDS011;72696;52.372;9.722;2023-11-21T11:54:00;7.43;;;4.57;;
82920;SDS011;72696;52.372;9.722;2023-11-21T11:58:53;8.15;;;4.80;;
82920;SDS011;72696;52.372;9.722;2023-11-21T12:01:20;6.32;;;4.25;;
82920;SDS011;72696;52.372;9.722;2023-11-21T12:06:40;7.70;;;4.20;;
82920;SDS011;72696;52.372;9.722;2023-11-21T12:09:06;6.95;;;4.15;;
82920;SDS011;72696;52.372;9.722;2023-11-21T12:11:32;7.60;;;4.90;;
82920;SDS011;72696;52.372;9.722;2023-11-21T12:14:00;7.00;;;3.97;;
82920;SDS011;72696;52.372;9.722;2023-11-21T12:16:26;6.45;;;4.50;;
82920;SDS011;72696;52.372;9.722;2023-11-21T12:18:54;6.40;;;4.47;;
82920;SDS011;72696;52.372;9.722;2023-11-21T12:21:20;5.90;;;4.53;;
82920;SDS011;72696;52.372;9.722;2023-11-21T12:23:45;6.10;;;3.92;;
82920;SDS011;72696;52.372;9.722;2023-11-21T12:26:12;6.38;;;4.30;;
82920;SDS011;72696;52.372;9.722;2023-11-21T12:28:38;5.43;;;3.75;;
82920;SDS011;72696;52.372;9.722;2023-11-21T12:31:04;5.68;;;4.18;;
82920;SDS011;72696;52.372;9.722;2023-11-21T12:33:31;6.90;;;3.78;;
82920;SDS011;72696;52.372;9.722;2023-11-21T12:35:58;5.78;;;3.83;;
82920;SDS011;72696;52.372;9.722;2023-11-21T12:38:23;5.93;;;3.88;;
82920;SDS011;72696;52.372;9.722;2023-11-21T12:40:49;6.63;;;4.30;;
82920;SDS011;72696;52.372;9.722;2023-11-21T12:43:15;5.22;;;3.60;;
82920;SDS011;72696;52.372;9.722;2023-11-21T12:45:43;5.65;;;3.88;;
82920;SDS011;72696;52.372;9.722;2023-11-21T12:48:09;6.78;;;3.88;;
82920;SDS011;72696;52.372;9.722;2023-11-21T12:50:36;7.47;;;3.72;;
82920;SDS011;72696;52.372;9.722;2023-11-21T12:55:31;6.07;;;4.20;;
82920;SDS011;72696;52.372;9.722;2023-11-21T12:57:58;6.18;;;4.45;;
82920;SDS011;72696;52.372;9.722;2023-11-21T13:00:42;6.45;;;4.78;;
82920;SDS011;72696;52.372;9.722;2023-11-21T13:03:08;6.53;;;4.57;;
82920;SDS011;72696;52.372;9.722;2023-11-21T13:05:38;6.32;;;4.20;;
82920;SDS011;72696;52.372;9.722;2023-11-21T13:08:08;5.35;;;3.90;;
82920;SDS011;72696;52.372;9.722;2023-11-21T13:10:35;6.60;;;4.68;;
82920;SDS011;72696;52.372;9.722;2023-11-21T13:13:04;5.18;;;3.95;;
82920;SDS011;72696;52.372;9.722;2023-11-21T13:15:33;5.97;;;4.50;;
82920;SDS011;72696;52.372;9.722;2023-11-21T13:18:00;7.05;;;4.85;;
82920;SDS011;72696;52.372;9.722;2023-11-21T13:20:25;8.85;;;5.10;;
82920;SDS011;72696;52.372;9.722;2023-11-21T13:22:54;7.10;;;4.60;;
82920;SDS011;72696;52.372;9.722;2023-11-21T13:25:28;6.07;;;4.20;;
82920;SDS011;72696;52.372;9.722;2023-11-21T13:27:57;7.18;;;4.30;;
82920;SDS011;72696;52.372;9.722;2023-11-21T13:30:23;7.63;;;4.72;;
82920;SDS011;72696;52.372;9.722;2023-11-21T13:32:54;8.48;;;4.90;;
82920;SDS011;72696;52.372;9.722;2023-11-21T13:35:27;7.45;;;4.63;;
82920;SDS011;72696;52.372;9.722;2023-11-21T13:37:57;6.80;;;4.57;;
82920;SDS011;72696;52.372;9.722;2023-11-21T13:40:31;7.72;;;5.22;;
82920;SDS011;72696;52.372;9.722;2023-11-21T13:42:59;8.35;;;5.30;;
82920;SDS011;72696;52.372;9.722;2023-11-21T13:45:53;6.35;;;5.18;;
82920;SDS011;72696;52.372;9.722;2023-11-21T13:48:28;6.50;;;4.78;;
82920;SDS011;72696;52.372;9.722;2023-11-21T13:51:02;8.50;;;4.65;;
82920;SDS011;72696;52.372;9.722;2023-11-21T13:53:38;7.20;;;4.78;;
82920;SDS011;72696;52.372;9.722;2023-11-21T13:56:03;8.75;;;4.72;;
82920;SDS011;72696;52.372;9.722;2023-11-21T13:58:29;6.38;;;4.45;;
82920;SDS011;72696;52.372;9.722;2023-11-21T14:01:13;7.28;;;4.55;;
82920;SDS011;72696;52.372;9.722;2023-11-21T14:03:57;6.13;;;3.97;;
82920;SDS011;72696;52.372;9.722;2023-11-21T14:06:48;5.75;;;3.75;;
82920;SDS011;72696;52.372;9.722;2023-11-21T14:09:16;6.70;;;3.90;;
82920;SDS011;72696;52.372;9.722;2023-11-21T14:11:56;6.18;;;4.03;;
82920;SDS011;72696;52.372;9.722;2023-11-21T14:14:23;5.75;;;3.67;;
82920;SDS011;72696;52.372;9.722;2023-11-21T14:16:50;4.95;;;3.60;;
82920;SDS011;72696;52.372;9.722;2023-11-21T14:19:16;5.03;;;3.65;;
82920;SDS011;72696;52.372;9.722;2023-11-21T14:21:42;8.40;;;3.95;;
82920;SDS011;72696;52.372;9.722;2023-11-21T14:24:13;6.35;;;3.85;;
82920;SDS011;72696;52.372;9.722;2023-11-21T14:26:41;6.00;;;3.83;;
82920;SDS011;72696;52.372;9.722;2023-11-21T14:29:07;6.55;;;4.43;;
82920;SDS011;72696;52.372;9.722;2023-11-21T14:31:39;7.07;;;4.13;;
82920;SDS011;72696;52.372;9.722;2023-11-21T14:34:04;7.47;;;3.70;;
82920;SDS011;72696;52.372;9.722;2023-11-21T14:36:32;6.93;;;4.07;;
82920;SDS011;72696;52.372;9.722;2023-11-21T14:38:57;7.55;;;3.80;;
82920;SDS011;72696;52.372;9.722;2023-11-21T14:41:23;6.50;;;4.38;;
82920;SDS011;72696;52.372;9.722;2023-11-21T14:43:52;6.00;;;4.13;;
82920;SDS011;72696;52.372;9.722;2023-11-21T14:46:19;7.35;;;5.07;;
82920;SDS011;72696;52.372;9.722;2023-11-21T14:48:44;8.35;;;4.30;;
82920;SDS011;72696;52.372;9.722;2023-11-21T14:51:23;6.75;;;4.60;;
82920;SDS011;72696;52.372;9.722;2023-11-21T14:53:55;8.32;;;5.38;;
82920;SDS011;72696;52.372;9.722;2023-11-21T14:56:25;7.20;;;4.40;;
82920;SDS011;72696;52.372;9.722;2023-11-21T14:58:55;8.85;;;4.70;;
82920;SDS011;72696;52.372;9.722;2023-11-21T15:01:22;6.07;;;4.35;;